Time;durP1;ratioP1;P1;durP2;ratioP2;P2;SDS_P1;SDS_P2;PMS_P1;PMS_P2;Temp;Humidity;BMP_temperature;BMP_pressure;BME280_temperature;BME280_humidity;BME280_pressure;Samples;Min_cycle;Max_cycle;Signal;HPM_P1;HPM_P2
2022/02/08 00:02:48;;;;;;;4.73;2.00;;;;;;;;;;10240581;28;20047;-76
2022/02/08 00:07:55;;;;;;;1.17;0.43;;;;;;;;;;10242594;28;20032;-75
2022/02/08 00:12:57;;;;;;;0.40;0.33;;;;;;;;;;10240329;28;20035;-74
2022/02/08 00:18:01;;;;;;;3.70;0.80;;;;;;;;;;10241982;28;20105;-75
2022/02/08 00:23:05;;;;;;;1.17;0.73;;;;;;;;;;10243742;28;20820;-74
2022/02/08 00:28:08;;;;;;;;;;;;;;;;;;10243195;28;20451;-74
2022/02/08 00:33:11;;;;;;;1.90;0.70;;;;;;;;;;10237849;28;20017;-74
2022/02/08 00:38:17;;;;;;;4.37;1.00;;;;;;;;;;10242040;28;20043;-73
2022/02/08 00:43:25;;;;;;;2.90;0.70;;;;;;;;;;10242090;28;20035;-74
2022/02/08 00:48:31;;;;;;;1.40;0.63;;;;;;;;;;10241377;28;20043;-74
2022/02/08 00:53:36;;;;;;;0.93;0.67;;;;;;;;;;10239214;28;20078;-74
2022/02/08 00:58:38;;;;;;;;;;;;;;;;;;10237618;28;20461;-75
2022/02/08 01:03:42;;;;;;;3.30;1.53;;;;;;;;;;10240155;28;20000;-74
2022/02/08 01:08:47;;;;;;;2.63;1.23;;;;;;;;;;10231133;28;20133;-76
2022/02/08 01:13:49;;;;;;;;;;;;;;;;;;10269514;28;20043;-74
2022/02/08 01:18:55;;;;;;;0.63;0.37;;;;;;;;;;10239946;28;19930;-73
2022/02/08 01:24:00;;;;;;;1.43;0.87;;;;;;;;;;10239510;28;20131;-75
2022/02/08 01:29:16;;;;;;;6.13;1.57;;;;;;;;;;10253207;28;20147;-75
2022/02/08 01:34:36;;;;;;;5.37;1.60;;;;;;;;;;10251718;28;20036;-75
2022/02/08 01:39:52;;;;;;;4.33;1.30;;;;;;;;;;10254211;28;20074;-76
2022/02/08 01:45:08;;;;;;;2.50;0.97;;;;;;;;;;10254422;28;20158;-75
2022/02/08 01:50:16;;;;;;;1.90;1.20;;;;;;;;;;10252621;28;20447;-76
2022/02/08 01:55:20;;;;;;;4.10;1.03;;;;;;;;;;10253861;28;20052;-75
2022/02/08 02:00:43;;;;;;;;;;;;;;;;;;10246887;28;20040;-75
2022/02/08 02:05:46;;;;;;;4.10;0.70;;;;;;;;;;10252039;28;19922;-74
2022/02/08 02:10:51;;;;;;;1.27;0.60;;;;;;;;;;10249227;28;20062;-74
2022/02/08 02:15:54;;;;;;;3.00;0.77;;;;;;;;;;10249125;28;20050;-73
2022/02/08 02:20:58;;;;;;;2.00;0.77;;;;;;;;;;10248126;28;20036;-75
2022/02/08 02:26:07;;;;;;;3.60;0.83;;;;;;;;;;10244814;28;20259;-75
2022/02/08 02:31:17;;;;;;;4.47;0.87;;;;;;;;;;10241869;28;20050;-74
2022/02/08 02:36:20;;;;;;;2.67;0.87;;;;;;;;;;10281944;28;20039;-75
2022/02/08 02:41:25;;;;;;;2.27;1.20;;;;;;;;;;10245835;28;20477;-74
2022/02/08 02:46:29;;;;;;;5.80;0.63;;;;;;;;;;10255382;28;20412;-75
2022/02/08 02:51:33;;;;;;;3.85;1.25;;;;;;;;;;10263311;28;20035;-76
2022/02/08 02:56:37;;;;;;;0.30;0.10;;;;;;;;;;10260983;28;20134;-76
2022/02/08 03:01:58;;;;;;;3.53;0.80;;;;;;;;;;10294491;28;20046;-75
2022/02/08 03:23:14;;;;;;;2.03;0.57;;;;;;;;;;10262752;28;20138;-75
2022/02/08 03:28:20;;;;;;;2.53;0.70;;;;;;;;;;10261500;28;20459;-74
2022/02/08 03:33:25;;;;;;;3.37;0.60;;;;;;;;;;10296890;28;20048;-76
2022/02/08 03:38:32;;;;;;;4.60;1.70;;;;;;;;;;10267565;28;20039;-75
2022/02/08 03:43:40;;;;;;;1.77;0.30;;;;;;;;;;10284645;28;20055;-74
2022/02/08 03:48:44;;;;;;;0.37;0.37;;;;;;;;;;10285461;28;20051;-73
2022/02/08 03:53:48;;;;;;;3.50;1.00;;;;;;;;;;10280686;28;20054;-73
2022/02/08 03:58:56;;;;;;;1.27;0.40;;;;;;;;;;10283830;28;20047;-74
2022/02/08 04:04:26;;;;;;;2.73;0.53;;;;;;;;;;10285926;28;20027;-73
2022/02/08 04:09:29;;;;;;;3.17;0.80;;;;;;;;;;10281321;28;20039;-73
2022/02/08 04:14:42;;;;;;;3.00;0.87;;;;;;;;;;10280374;28;20098;-75
2022/02/08 04:20:02;;;;;;;2.43;0.60;;;;;;;;;;10284437;28;20035;-76
2022/02/08 04:36:10;;;;;;;0.30;0.23;;;;;;;;;;10250796;28;20054;-76
2022/02/08 04:41:18;;;;;;;5.50;0.30;;;;;;;;;;10248530;28;20039;-76
2022/02/08 04:46:40;;;;;;;3.50;0.80;;;;;;;;;;10253364;28;20050;-76
2022/02/08 04:51:48;;;;;;;5.40;1.17;;;;;;;;;;10255928;28;20695;-76
2022/02/08 04:57:05;;;;;;;1.57;0.60;;;;;;;;;;10255304;28;20046;-75
2022/02/08 05:02:30;;;;;;;5.00;0.97;;;;;;;;;;10258002;28;20054;-75
2022/02/08 05:35:11;;;;;;;2.47;0.50;;;;;;;;;;10460037;28;20194;-74
2022/02/08 05:45:33;;;;;;;5.03;0.80;;;;;;;;;;10489177;28;20033;-74
2022/02/08 05:50:42;;;;;;;4.33;0.70;;;;;;;;;;10493265;28;20109;-75
2022/02/08 05:55:45;;;;;;;1.30;0.53;;;;;;;;;;10485093;28;20033;-75
2022/02/08 06:00:49;;;;;;;1.88;0.88;;;;;;;;;;10496293;28;20084;-74
2022/02/08 06:05:57;;;;;;;1.10;0.30;;;;;;;;;;10495430;28;20025;-74
2022/02/08 06:11:03;;;;;;;2.80;0.70;;;;;;;;;;10496642;28;20103;-75
2022/02/08 06:16:11;;;;;;;3.13;0.93;;;;;;;;;;10495473;28;20092;-73
2022/02/08 06:21:15;;;;;;;3.73;1.07;;;;;;;;;;10482431;28;20485;-75
2022/02/08 06:26:19;;;;;;;2.83;0.67;;;;;;;;;;10486106;28;20037;-75
2022/02/08 06:31:22;;;;;;;;;;;;;;;;;;10484088;28;20041;-74
2022/02/08 06:36:27;;;;;;;2.47;0.60;;;;;;;;;;10487786;28;19985;-74
2022/02/08 06:41:32;;;;;;;1.50;0.47;;;;;;;;;;10481327;28;20764;-74
2022/02/08 06:46:35;;;;;;;1.53;0.60;;;;;;;;;;10482035;28;20067;-75
2022/02/08 06:51:40;;;;;;;0.40;0.38;;;;;;;;;;10487278;28;20029;-73
2022/02/08 06:56:44;;;;;;;0.80;0.57;;;;;;;;;;10476483;28;20056;-74
2022/02/08 07:01:47;;;;;;;1.15;0.80;;;;;;;;;;10477141;28;20036;-73
2022/02/08 07:06:52;;;;;;;0.73;0.53;;;;;;;;;;10472667;28;20037;-74
2022/02/08 07:11:57;;;;;;;1.83;1.03;;;;;;;;;;10482326;28;20141;-74
2022/02/08 07:17:00;;;;;;;1.77;0.60;;;;;;;;;;10485672;28;20145;-75
2022/02/08 07:22:04;;;;;;;3.10;1.00;;;;;;;;;;10477286;28;20064;-75
2022/02/08 07:27:07;;;;;;;;;;;;;;;;;;10465412;28;20041;-73
2022/02/08 07:32:10;;;;;;;4.07;1.53;;;;;;;;;;10467014;28;19920;-74
2022/02/08 07:37:16;;;;;;;2.77;0.67;;;;;;;;;;10460339;28;20117;-75
2022/02/08 07:42:19;;;;;;;1.73;0.40;;;;;;;;;;10448746;28;20044;-74
2022/02/08 07:47:22;;;;;;;0.40;0.27;;;;;;;;;;10459627;28;20054;-73
2022/02/08 07:52:26;;;;;;;0.37;0.37;;;;;;;;;;10466555;28;20174;-75
2022/02/08 07:57:30;;;;;;;4.73;1.00;;;;;;;;;;10471077;28;20041;-74
2022/02/08 08:02:35;;;;;;;2.23;0.60;;;;;;;;;;10481642;28;20129;-75
2022/02/08 08:07:41;;;;;;;3.67;1.00;;;;;;;;;;10462178;28;20102;-74
2022/02/08 08:12:48;;;;;;;3.83;1.03;;;;;;;;;;10460084;28;20033;-74
2022/02/08 08:17:59;;;;;;;0.10;0.10;;;;;;;;;;10452933;28;20068;-75
2022/02/08 08:23:03;;;;;;;5.40;0.97;;;;;;;;;;10459109;28;20039;-75
2022/02/08 08:28:06;;;;;;;;;;;;;;;;;;10447188;28;20114;-75
2022/02/08 08:33:09;;;;;;;3.53;0.67;;;;;;;;;;10443278;28;19932;-75
2022/02/08 08:38:34;;;;;;;1.33;0.67;;;;;;;;;;10440466;28;20037;-75
2022/02/08 08:49:24;;;;;;;2.03;0.67;;;;;;;;;;10415772;28;20053;-74
2022/02/08 08:54:28;;;;;;;0.37;0.37;;;;;;;;;;10421981;28;20091;-75
2022/02/08 08:59:32;;;;;;;0.63;0.30;;;;;;;;;;10421792;28;20112;-74
2022/02/08 09:04:40;;;;;;;1.75;0.82;;;;;;;;;;10429387;28;20038;-75
2022/02/08 09:09:48;;;;;;;0.67;0.47;;;;;;;;;;10424167;28;20539;-75
2022/02/08 09:15:09;;;;;;;1.50;0.47;;;;;;;;;;10417385;28;20720;-74
2022/02/08 09:20:28;;;;;;;0.10;0.10;;;;;;;;;;10426455;28;20049;-74
2022/02/08 09:30:58;;;;;;;0.35;0.32;;;;;;;;;;10421497;28;20042;-75
2022/02/08 09:36:01;;;;;;;3.30;0.85;;;;;;;;;;10419025;28;20028;-75
2022/02/08 09:41:05;;;;;;;;;;;;;;;;;;10418546;28;20075;-76
2022/02/08 09:46:10;;;;;;;1.52;0.90;;;;;;;;;;10417381;28;19932;-74
2022/02/08 09:51:13;;;;;;;3.03;1.00;;;;;;;;;;10417694;28;20049;-75
2022/02/08 09:56:17;;;;;;;3.20;0.90;;;;;;;;;;10418807;28;20068;-75
2022/02/08 10:01:23;;;;;;;2.83;0.75;;;;;;;;;;10411473;28;20089;-74
2022/02/08 10:06:27;;;;;;;1.70;1.20;;;;;;;;;;10420647;28;20041;-75
2022/02/08 10:11:39;;;;;;;1.38;1.13;;;;;;;;;;10419035;28;21377;-75
2022/02/08 10:22:13;;;;;;;2.10;0.70;;;;;;;;;;10425779;28;20037;-75
2022/02/08 10:27:25;;;;;;;1.67;0.40;;;;;;;;;;10428914;28;20029;-74
2022/02/08 10:37:58;;;;;;;1.27;0.50;;;;;;;;;;10428740;28;20068;-76
2022/02/08 10:43:03;;;;;;;0.20;0.20;;;;;;;;;;10427437;28;20599;-74
2022/02/08 10:48:09;;;;;;;1.23;0.40;;;;;;;;;;10429059;28;20056;-75
2022/02/08 10:53:14;;;;;;;0.98;0.40;;;;;;;;;;10429580;28;20083;-75
2022/02/08 10:58:27;;;;;;;1.10;0.50;;;;;;;;;;10426552;28;20065;-75
2022/02/08 11:03:39;;;;;;;2.05;0.50;;;;;;;;;;10424036;28;20037;-75
2022/02/08 11:19:59;;;;;;;1.48;1.08;;;;;;;;;;10410003;28;20047;-75
2022/02/08 11:25:06;;;;;;;2.38;1.23;;;;;;;;;;10424626;28;20389;-74
2022/02/08 11:30:15;;;;;;;1.30;1.20;;;;;;;;;;10420757;28;20098;-75
2022/02/08 11:46:16;;;;;;;3.05;0.70;;;;;;;;;;10464559;22;20056;-80
2022/02/08 11:51:38;;;;;;;1.73;1.10;;;;;;;;;;10450558;28;20038;-79
2022/02/08 11:57:03;;;;;;;2.15;1.15;;;;;;;;;;10442991;28;20064;-80
2022/02/08 12:07:51;;;;;;;0.90;0.90;;;;;;;;;;10441209;28;20069;-80
2022/02/08 12:13:14;;;;;;;1.67;1.10;;;;;;;;;;10453394;28;20037;-79
2022/02/08 12:56:20;;;;;;;0.75;0.60;;;;;;;;;;10449382;28;20065;-81
2022/02/08 13:01:58;;;;;;;1.40;0.55;;;;;;;;;;10467379;28;20138;-81
2022/02/08 14:07:25;;;;;;;0.28;0.28;;;;;;;;;;10482908;28;20056;-82
2022/02/08 14:18:10;;;;;;;0.65;0.30;;;;;;;;;;10504641;22;20056;-70
2022/02/08 14:23:28;;;;;;;0.57;0.30;;;;;;;;;;10308470;28;20069;-71
2022/02/08 14:34:16;;;;;;;0.43;0.20;;;;;;;;;;10393932;22;20120;-69
2022/02/08 15:06:48;;;;;;;0.40;0.28;;;;;;;;;;10345068;28;20417;-66
2022/02/08 15:12:06;;;;;;;0.38;0.25;;;;;;;;;;10387601;28;20038;-67
2022/02/08 15:17:13;;;;;;;0.40;0.30;;;;;;;;;;10390959;28;20085;-68
2022/02/08 15:22:18;;;;;;;2.85;0.60;;;;;;;;;;10399759;28;20038;-67
2022/02/08 15:27:22;;;;;;;3.53;0.20;;;;;;;;;;10391642;28;20176;-69
2022/02/08 15:32:26;;;;;;;0.57;0.40;;;;;;;;;;10387604;28;20460;-68
2022/02/08 15:37:31;;;;;;;0.73;0.35;;;;;;;;;;10381879;28;20709;-67
2022/02/08 15:42:39;;;;;;;1.98;0.30;;;;;;;;;;10390534;28;20041;-67
2022/02/08 15:47:41;;;;;;;0.50;0.47;;;;;;;;;;10383588;28;20143;-68
2022/02/08 15:53:08;;;;;;;1.35;0.68;;;;;;;;;;10388183;28;20075;-67
2022/02/08 15:58:22;;;;;;;2.40;0.68;;;;;;;;;;10388411;28;20034;-69
2022/02/08 16:08:53;;;;;;;1.50;0.80;;;;;;;;;;10382812;28;20034;-67
2022/02/08 16:14:03;;;;;;;0.82;0.30;;;;;;;;;;10387038;28;20037;-69
2022/02/08 16:19:15;;;;;;;3.28;1.02;;;;;;;;;;10385359;28;20107;-69
2022/02/08 16:24:40;;;;;;;1.13;0.75;;;;;;;;;;10387340;28;20052;-68
2022/02/08 16:56:59;;;;;;;1.90;0.90;;;;;;;;;;10347867;28;20064;-68
2022/02/08 17:02:05;;;;;;;1.63;0.90;;;;;;;;;;10391259;28;20136;-69
2022/02/08 17:07:08;;;;;;;3.50;0.70;;;;;;;;;;10390901;28;20436;-68
2022/02/08 17:12:18;;;;;;;0.60;0.43;;;;;;;;;;10390732;28;20067;-67
2022/02/08 17:49:40;;;;;;;4.30;1.00;;;;;;;;;;10466679;28;20580;-76
2022/02/08 17:54:45;;;;;;;1.23;0.50;;;;;;;;;;10494312;28;20040;-76
2022/02/08 17:59:48;;;;;;;;;;;;;;;;;;10498665;28;20040;-75
2022/02/08 18:04:53;;;;;;;1.67;1.10;;;;;;;;;;10475783;28;19985;-73
2022/02/08 18:09:57;;;;;;;3.23;1.00;;;;;;;;;;10496536;28;20032;-76
2022/02/08 18:15:05;;;;;;;2.30;0.98;;;;;;;;;;10477884;28;20263;-75
2022/02/08 18:20:19;;;;;;;4.67;1.17;;;;;;;;;;10476433;28;20067;-77
2022/02/08 18:25:44;;;;;;;2.43;0.93;;;;;;;;;;10480663;28;22059;-76
2022/02/08 18:57:46;;;;;;;3.57;1.67;;;;;;;;;;10465591;28;20037;-76
2022/02/08 19:08:32;;;;;;;2.40;1.30;;;;;;;;;;10475456;28;20048;-76
2022/02/08 19:19:19;;;;;;;2.87;1.27;;;;;;;;;;10487679;28;20656;-75
2022/02/08 19:24:22;;;;;;;5.87;1.70;;;;;;;;;;10464439;28;20112;-77
2022/02/08 19:29:29;;;;;;;4.57;1.73;;;;;;;;;;10463901;28;20037;-75
2022/02/08 19:34:33;;;;;;;1.97;1.10;;;;;;;;;;10481547;28;20041;-76
2022/02/08 19:39:37;;;;;;;2.90;1.43;;;;;;;;;;10478831;28;20051;-77
2022/02/08 19:44:42;;;;;;;4.32;1.98;;;;;;;;;;10459589;28;20048;-77
2022/02/08 19:49:45;;;;;;;4.97;1.70;;;;;;;;;;10477909;28;20033;-77
2022/02/08 19:55:07;;;;;;;4.93;1.95;;;;;;;;;;10467231;28;20110;-78
2022/02/08 20:00:18;;;;;;;3.40;1.70;;;;;;;;;;10475504;28;20034;-76
2022/02/08 20:05:21;;;;;;;3.90;1.80;;;;;;;;;;10478342;28;20041;-74
2022/02/08 20:10:26;;;;;;;4.38;1.67;;;;;;;;;;10482287;28;20062;-76
2022/02/08 20:15:34;;;;;;;4.70;1.67;;;;;;;;;;10479413;28;20067;-79
2022/02/08 20:20:38;;;;;;;5.20;1.90;;;;;;;;;;10456621;28;20128;-75
2022/02/08 20:25:47;;;;;;;3.03;1.23;;;;;;;;;;10477003;28;20098;-77
2022/02/08 20:30:52;;;;;;;4.93;1.90;;;;;;;;;;10464327;28;20524;-76
2022/02/08 20:35:55;;;;;;;6.53;2.20;;;;;;;;;;10455871;28;20314;-76
2022/02/08 20:41:01;;;;;;;7.53;3.10;;;;;;;;;;10469127;28;20036;-75
2022/02/08 20:46:07;;;;;;;5.53;2.33;;;;;;;;;;10479809;28;20079;-76
2022/02/08 20:51:09;;;;;;;8.17;2.70;;;;;;;;;;10481494;28;20485;-78
2022/02/08 20:56:15;;;;;;;5.07;1.77;;;;;;;;;;10474592;28;20064;-78
2022/02/08 21:01:21;;;;;;;4.50;2.13;;;;;;;;;;10483275;28;20060;-77
2022/02/08 21:06:24;;;;;;;4.43;1.60;;;;;;;;;;10468336;28;20033;-76
2022/02/08 21:11:33;;;;;;;3.60;2.03;;;;;;;;;;10472657;28;20104;-76
2022/02/08 21:16:41;;;;;;;6.97;2.33;;;;;;;;;;10452327;28;20041;-77
2022/02/08 21:21:44;;;;;;;3.80;1.43;;;;;;;;;;10470089;28;20047;-78
2022/02/08 21:26:51;;;;;;;1.83;1.23;;;;;;;;;;10465407;28;20531;-77
2022/02/08 21:32:20;;;;;;;4.10;2.13;;;;;;;;;;10463108;28;20045;-75
2022/02/08 21:48:28;;;;;;;2.90;1.63;;;;;;;;;;10461051;28;20037;-74
2022/02/08 21:53:33;;;;;;;5.97;1.93;;;;;;;;;;10454178;28;21995;-75
2022/02/08 21:58:36;;;;;;;2.43;1.30;;;;;;;;;;10469057;28;20033;-78
2022/02/08 22:03:41;;;;;;;4.63;1.70;;;;;;;;;;10449521;28;20045;-76
2022/02/08 22:08:52;;;;;;;1.07;0.80;;;;;;;;;;10473662;28;20037;-75
2022/02/08 22:19:40;;;;;;;6.53;1.50;;;;;;;;;;10461301;28;20044;-77
2022/02/08 22:24:52;;;;;;;12.97;2.50;;;;;;;;;;10480572;28;20530;-77
2022/02/08 22:30:06;;;;;;;2.73;0.97;;;;;;;;;;10476108;28;20035;-76
2022/02/08 22:35:19;;;;;;;4.43;1.65;;;;;;;;;;10473641;28;20049;-77
2022/02/08 22:40:28;;;;;;;4.67;1.90;;;;;;;;;;10447121;28;20033;-77
2022/02/08 22:45:33;;;;;;;8.77;2.30;;;;;;;;;;10483351;28;20047;-78
2022/02/08 22:50:38;;;;;;;2.43;1.33;;;;;;;;;;10479827;28;20037;-79
2022/02/08 22:55:41;;;;;;;5.40;1.83;;;;;;;;;;10474227;28;20320;-77
2022/02/08 23:00:45;;;;;;;3.40;1.90;;;;;;;;;;10457272;28;20493;-76
2022/02/08 23:05:50;;;;;;;4.25;1.60;;;;;;;;;;10470322;28;20040;-75
2022/02/08 23:11:04;;;;;;;3.03;1.47;;;;;;;;;;10477415;28;20025;-77
2022/02/08 23:16:32;;;;;;;4.03;1.67;;;;;;;;;;10464014;28;20048;-77
2022/02/08 23:37:39;;;;;;;4.67;1.60;;;;;;;;;;10448520;28;20075;-76
2022/02/08 23:42:43;;;;;;;;;;;;;;;;;;10458974;28;20033;-78
2022/02/08 23:47:50;;;;;;;0.93;0.65;;;;;;;;;;10470577;28;19929;-76
2022/02/08 23:53:02;;;;;;;5.97;1.77;;;;;;;;;;10466101;28;20033;-77
2022/02/08 23:58:10;;;;;;;3.83;1.67;;;;;;;;;;10457770;28;20036;-75
